Time;durP1;ratioP1;P1;durP2;ratioP2;P2;SDS_P1;SDS_P2;PMS_P1;PMS_P2;Temp;Humidity;BMP_temperature;BMP_pressure;BME280_temperature;BME280_humidity;BME280_pressure;Samples;Min_cycle;Max_cycle;Signal;HPM_P1;HPM_P2
2021/01/27 00:00:50;;;;;;;9.57;3.75;;;-0.70;99.90;;;;;;4862107;28;20168;-86
2021/01/27 00:03:12;;;;;;;8.35;3.92;;;-0.60;99.90;;;;;;4857642;28;20564;-85
2021/01/27 00:05:44;;;;;;;13.90;3.83;;;-0.60;99.90;;;;;;4857722;28;20092;-84
2021/01/27 00:08:08;;;;;;;9.13;3.78;;;-0.50;99.90;;;;;;4859724;28;20531;-86
2021/01/27 00:10:34;;;;;;;11.02;3.58;;;-0.40;99.90;;;;;;4852775;28;20098;-86
2021/01/27 00:12:56;;;;;;;;;;;-0.40;99.90;;;;;;4849124;28;20441;-85
2021/01/27 00:15:23;;;;;;;13.57;3.83;;;-0.30;99.90;;;;;;4854526;28;19969;-85
2021/01/27 00:17:48;;;;;;;15.80;3.83;;;-0.30;99.90;;;;;;4857236;28;20108;-86
2021/01/27 00:20:15;;;;;;;8.55;3.08;;;-0.30;99.90;;;;;;4855255;28;20437;-85
2021/01/27 00:22:38;;;;;;;13.70;3.55;;;;;;;;;;4874158;28;20235;-84
2021/01/27 00:25:02;;;;;;;10.05;3.95;;;-0.30;99.90;;;;;;4856279;28;20116;-84
2021/01/27 00:27:26;;;;;;;7.57;3.47;;;-0.30;99.90;;;;;;4857968;28;20097;-85
2021/01/27 00:29:52;;;;;;;13.95;4.38;;;-0.30;99.90;;;;;;4875533;28;20103;-86
2021/01/27 00:32:19;;;;;;;9.10;3.40;;;;;;;;;;4876284;28;20120;-85
2021/01/27 00:34:42;;;;;;;10.88;4.50;;;-0.30;99.90;;;;;;4856217;28;20513;-87
2021/01/27 00:37:05;;;;;;;10.13;3.28;;;;;;;;;;4859281;28;20176;-85
2021/01/27 00:39:28;;;;;;;8.60;2.67;;;-0.20;99.90;;;;;;4856427;28;20098;-85
2021/01/27 00:41:53;;;;;;;8.57;3.70;;;-0.20;99.90;;;;;;4868545;28;20128;-85
2021/01/27 00:44:17;;;;;;;7.28;2.67;;;-0.20;99.90;;;;;;4861072;28;20109;-86
2021/01/27 00:46:40;;;;;;;8.80;3.42;;;-0.10;99.90;;;;;;4874353;28;20089;-85
2021/01/27 00:49:06;;;;;;;12.45;3.15;;;0.00;99.90;;;;;;4871946;28;20096;-85
2021/01/27 00:51:30;;;;;;;14.93;3.03;;;0.00;99.90;;;;;;4873873;28;20266;-85
2021/01/27 00:53:53;;;;;;;9.70;3.22;;;0.00;99.90;;;;;;4857445;28;20098;-87
2021/01/27 00:56:18;;;;;;;7.78;2.80;;;0.00;99.90;;;;;;4855483;28;20088;-87
2021/01/27 00:58:43;;;;;;;6.22;2.60;;;0.00;99.90;;;;;;4875779;28;20135;-86
2021/01/27 01:01:06;;;;;;;8.60;2.38;;;0.10;99.90;;;;;;4862004;28;20544;-87
2021/01/27 01:03:29;;;;;;;23.27;3.00;;;0.10;99.90;;;;;;4876256;28;20429;-86
2021/01/27 01:05:54;;;;;;;15.65;3.00;;;0.20;99.90;;;;;;4857430;28;20451;-86
2021/01/27 01:08:19;;;;;;;13.43;2.55;;;0.10;99.90;;;;;;4868341;28;20447;-86
2021/01/27 01:10:47;;;;;;;7.50;2.15;;;0.00;99.90;;;;;;4870965;28;20086;-85
2021/01/27 01:13:15;;;;;;;9.80;2.85;;;0.10;99.90;;;;;;4871408;28;20511;-86
2021/01/27 01:15:39;;;;;;;7.47;3.00;;;0.10;99.90;;;;;;4872163;28;20124;-86
2021/01/27 01:18:02;;;;;;;12.90;3.05;;;0.10;99.90;;;;;;4860856;28;20186;-86
2021/01/27 01:20:27;;;;;;;17.10;2.25;;;0.20;99.90;;;;;;4849298;28;20437;-85
2021/01/27 01:22:54;;;;;;;6.57;2.42;;;0.10;99.90;;;;;;4862394;28;20181;-87
2021/01/27 01:25:19;;;;;;;7.82;2.15;;;0.10;99.90;;;;;;4863626;28;20529;-86
2021/01/27 01:27:44;;;;;;;6.85;2.65;;;;;;;;;;4859180;28;20097;-84
2021/01/27 01:30:24;;;;;;;10.27;2.45;;;-0.10;99.90;;;;;;4852315;28;20093;-86
2021/01/27 01:32:48;;;;;;;10.02;2.97;;;-0.10;99.90;;;;;;4872065;28;20080;-85
2021/01/27 01:35:19;;;;;;;11.40;2.90;;;-0.10;99.90;;;;;;4855725;28;20097;-85
2021/01/27 01:37:43;;;;;;;6.72;2.50;;;;;;;;;;4852821;28;20512;-86
2021/01/27 01:40:10;;;;;;;8.27;2.70;;;0.70;99.90;;;;;;4835851;28;20573;-83
2021/01/27 01:42:34;;;;;;;7.00;2.08;;;;;;;;;;4854844;28;20096;-85
2021/01/27 01:44:58;;;;;;;15.55;2.95;;;-0.10;99.90;;;;;;4866027;28;20093;-86
2021/01/27 01:47:23;;;;;;;7.28;2.13;;;-0.20;99.90;;;;;;4845375;28;20085;-86
2021/01/27 01:49:48;;;;;;;10.03;1.83;;;-0.20;99.90;;;;;;4862978;28;20167;-86
2021/01/27 01:52:12;;;;;;;10.18;2.00;;;-0.30;99.90;;;;;;4855055;28;20501;-87
2021/01/27 01:54:39;;;;;;;9.32;2.25;;;-0.30;99.90;;;;;;4857791;28;20091;-86
2021/01/27 01:57:10;;;;;;;8.25;2.30;;;-0.30;99.90;;;;;;4846222;28;20102;-86
2021/01/27 01:59:36;;;;;;;4.93;1.83;;;-0.40;99.90;;;;;;4868348;28;20096;-86
2021/01/27 02:02:03;;;;;;;4.32;1.80;;;-0.50;99.90;;;;;;4869937;28;20416;-86
2021/01/27 02:04:30;;;;;;;4.32;1.45;;;-0.50;99.90;;;;;;4870415;28;20098;-86
2021/01/27 02:06:55;;;;;;;5.85;2.10;;;-0.50;99.90;;;;;;4872077;28;20099;-84
2021/01/27 02:09:21;;;;;;;3.08;1.33;;;-0.50;99.90;;;;;;4871160;28;20088;-87
2021/01/27 02:12:09;;;;;;;3.83;1.65;;;-0.50;99.90;;;;;;4870781;28;20180;-87
2021/01/27 02:14:51;;;;;;;5.45;1.73;;;-0.60;99.90;;;;;;4856045;28;20112;-86
2021/01/27 02:17:28;;;;;;;7.90;2.33;;;-0.60;99.90;;;;;;4851044;28;20176;-85
2021/01/27 02:20:45;;;;;;;6.28;1.77;;;-0.60;99.90;;;;;;4865723;28;20475;-85
2021/01/27 02:23:45;;;;;;;10.63;1.35;;;-0.70;99.90;;;;;;4856074;28;20085;-85
2021/01/27 02:26:35;;;;;;;3.15;1.63;;;-0.80;99.90;;;;;;4859809;28;20093;-84
2021/01/27 02:29:18;;;;;;;4.00;1.55;;;-0.80;99.90;;;;;;4862660;28;20525;-86
2021/01/27 02:32:01;;;;;;;12.20;1.90;;;-0.90;99.90;;;;;;4849812;28;20094;-83
2021/01/27 02:35:01;;;;;;;4.20;1.60;;;-1.00;99.90;;;;;;4847743;28;20106;-84
2021/01/27 02:37:29;;;;;;;8.80;1.63;;;-1.00;99.90;;;;;;4860686;28;20529;-87
2021/01/27 02:39:57;;;;;;;3.70;2.03;;;-1.00;99.90;;;;;;4857069;28;20137;-86
2021/01/27 02:42:33;;;;;;;3.17;1.63;;;-1.10;99.90;;;;;;4861621;28;20086;-86
2021/01/27 02:45:01;;;;;;;6.30;2.05;;;-1.10;99.90;;;;;;4859136;28;20098;-86
2021/01/27 02:47:27;;;;;;;8.55;2.67;;;-1.20;99.90;;;;;;4853104;28;20446;-86
2021/01/27 02:49:58;;;;;;;13.45;2.47;;;-1.30;99.90;;;;;;4859952;28;20092;-86
2021/01/27 02:52:30;;;;;;;4.38;2.28;;;-1.30;99.90;;;;;;4849811;28;20096;-84
2021/01/27 02:55:13;;;;;;;6.38;2.45;;;-1.30;99.90;;;;;;4862881;28;20091;-85
2021/01/27 02:57:41;;;;;;;11.55;1.88;;;-1.30;99.90;;;;;;4867679;28;20099;-86
2021/01/27 03:00:08;;;;;;;5.63;2.60;;;;;;;;;;4872341;28;20117;-88
2021/01/27 03:02:35;;;;;;;7.22;2.90;;;-1.30;99.90;;;;;;4873490;28;20099;-84
2021/01/27 03:05:06;;;;;;;9.88;2.00;;;-1.30;99.90;;;;;;4870053;28;20096;-86
2021/01/27 03:07:40;;;;;;;9.85;2.50;;;-1.30;99.90;;;;;;4868046;28;20283;-86
2021/01/27 03:10:11;;;;;;;6.93;2.65;;;-1.30;99.90;;;;;;4855227;28;20107;-86
2021/01/27 03:12:35;;;;;;;7.30;2.47;;;-1.20;99.90;;;;;;4854113;28;20148;-86
2021/01/27 03:14:59;;;;;;;6.10;2.55;;;-1.20;99.90;;;;;;4858780;28;20094;-87
2021/01/27 03:17:24;;;;;;;15.02;2.65;;;-1.30;99.90;;;;;;4855906;28;20146;-87
2021/01/27 03:19:56;;;;;;;6.25;1.58;;;-1.20;99.90;;;;;;4865488;28;20474;-87
2021/01/27 03:22:23;;;;;;;8.38;2.78;;;-1.10;99.90;;;;;;4852722;28;20119;-87
2021/01/27 03:24:52;;;;;;;5.05;2.45;;;-1.10;99.90;;;;;;4854438;28;20086;-88
2021/01/27 03:27:22;;;;;;;6.57;2.78;;;-1.10;99.90;;;;;;4862674;28;20107;-88
2021/01/27 03:29:48;;;;;;;6.00;2.75;;;-1.10;99.90;;;;;;4877970;28;20095;-87
2021/01/27 03:32:18;;;;;;;6.70;2.60;;;-1.10;99.90;;;;;;4857291;28;20104;-86
2021/01/27 03:34:46;;;;;;;7.38;2.75;;;-1.10;99.90;;;;;;4872589;28;20103;-88
2021/01/27 03:37:13;;;;;;;12.57;2.78;;;-1.10;99.90;;;;;;4875913;28;20108;-87
2021/01/27 03:39:40;;;;;;;14.75;3.20;;;-1.10;99.90;;;;;;4874517;28;20097;-87
2021/01/27 03:42:09;;;;;;;12.38;2.53;;;-1.10;99.90;;;;;;4868003;28;20096;-88
2021/01/27 03:44:37;;;;;;;13.13;2.90;;;-1.10;99.90;;;;;;4857433;28;20514;-88
2021/01/27 03:47:04;;;;;;;12.07;2.75;;;-1.10;99.90;;;;;;4855814;28;20502;-88
2021/01/27 03:49:33;;;;;;;7.40;3.08;;;-1.00;99.90;;;;;;4849469;28;20095;-86
2021/01/27 03:52:01;;;;;;;7.03;2.53;;;-1.00;99.90;;;;;;4861103;28;20095;-89
2021/01/27 03:54:27;;;;;;;10.10;2.67;;;-1.10;99.90;;;;;;4855466;28;20089;-88
2021/01/27 03:56:56;;;;;;;12.18;2.78;;;-1.10;99.90;;;;;;4874685;28;20111;-88
2021/01/27 03:59:20;;;;;;;4.97;2.72;;;;;;;;;;4876037;28;20125;-88
2021/01/27 04:01:53;;;;;;;6.68;2.88;;;-1.10;99.90;;;;;;4877444;28;20151;-88
2021/01/27 04:04:16;;;;;;;9.05;2.80;;;-1.20;99.90;;;;;;4868409;28;20553;-89
2021/01/27 04:06:38;;;;;;;5.97;3.03;;;-1.20;99.90;;;;;;4862841;28;20458;-87
2021/01/27 04:09:12;;;;;;;9.85;3.67;;;-1.20;99.90;;;;;;4859151;28;20454;-88
2021/01/27 04:11:36;;;;;;;8.43;2.70;;;-1.30;99.90;;;;;;4852274;28;20436;-88
2021/01/27 04:13:59;;;;;;;18.75;3.60;;;-1.30;99.90;;;;;;4852138;28;20099;-88
2021/01/27 04:16:30;;;;;;;7.55;2.53;;;-1.30;99.90;;;;;;4849883;28;20103;-88
2021/01/27 04:18:53;;;;;;;5.72;2.63;;;-1.30;99.90;;;;;;4850841;28;20149;-88
2021/01/27 04:21:18;;;;;;;8.40;2.47;;;-1.40;99.90;;;;;;4872317;28;20094;-88
2021/01/27 04:23:42;;;;;;;7.88;2.95;;;-1.40;99.90;;;;;;4874826;28;20102;-88
2021/01/27 04:26:11;;;;;;;4.68;2.35;;;-1.40;99.90;;;;;;4861658;28;20102;-88
2021/01/27 04:28:48;;;;;;;5.80;2.53;;;-1.40;99.90;;;;;;4874388;28;20545;-87
2021/01/27 04:31:20;;;;;;;10.77;2.78;;;-1.50;99.90;;;;;;4872698;28;20524;-86
2021/01/27 04:33:52;;;;;;;3.78;2.03;;;-1.50;99.90;;;;;;4858949;28;20106;-88
2021/01/27 04:36:16;;;;;;;13.85;2.20;;;-1.50;99.90;;;;;;4867809;28;20114;-88
2021/01/27 04:38:39;;;;;;;4.97;2.75;;;-1.60;99.90;;;;;;4858120;28;20094;-86
2021/01/27 04:41:02;;;;;;;9.57;2.88;;;-1.60;99.90;;;;;;4857099;28;20133;-89
2021/01/27 04:43:34;;;;;;;8.88;2.95;;;-1.70;99.90;;;;;;4847664;28;20090;-84
2021/01/27 04:46:03;;;;;;;6.03;2.72;;;-1.70;99.90;;;;;;4875333;28;20592;-88
2021/01/27 04:48:37;;;;;;;6.40;2.38;;;-1.70;99.90;;;;;;4869813;28;22612;-89
2021/01/27 04:51:05;;;;;;;8.43;3.63;;;-1.70;99.90;;;;;;4873581;28;22388;-90
2021/01/27 04:53:39;;;;;;;13.20;3.80;;;-1.70;99.90;;;;;;4871013;28;20091;-88
2021/01/27 04:56:22;;;;;;;11.75;3.47;;;-1.70;99.90;;;;;;4858359;28;20104;-90
2021/01/27 04:59:01;;;;;;;20.30;5.57;;;-1.80;99.90;;;;;;4846698;28;20607;-89
2021/01/27 05:01:46;;;;;;;51.50;10.65;;;-1.70;99.90;;;;;;4861903;28;20095;-89
2021/01/27 05:04:24;;;;;;;48.33;10.60;;;-1.80;99.90;;;;;;4862000;28;20086;-90
2021/01/27 05:06:54;;;;;;;39.65;7.47;;;-1.90;99.90;;;;;;4877002;28;20961;-91
2021/01/27 05:09:30;;;;;;;41.15;8.65;;;-1.90;99.90;;;;;;4866255;28;20106;-92
2021/01/27 05:11:56;;;;;;;63.58;9.48;;;-1.90;99.90;;;;;;4870622;28;20097;-91
2021/01/27 05:14:21;;;;;;;13.68;4.15;;;-2.00;99.90;;;;;;4867464;28;20509;-93
2021/01/27 05:16:46;;;;;;;9.57;4.05;;;-2.00;99.90;;;;;;4854776;28;20103;-89
2021/01/27 05:19:15;;;;;;;15.02;4.03;;;-2.00;99.90;;;;;;4855967;28;20450;-94
2021/01/27 05:21:45;;;;;;;19.52;5.28;;;-2.00;99.90;;;;;;4870116;28;20087;-91
2021/01/27 05:24:10;;;;;;;34.15;8.23;;;-2.10;99.90;;;;;;4870527;28;20119;-93
2021/01/27 05:26:37;;;;;;;29.60;7.63;;;-2.10;99.90;;;;;;4856366;28;20098;-92
2021/01/27 05:29:06;;;;;;;32.50;7.22;;;-2.00;99.90;;;;;;4861006;28;20092;-93
2021/01/27 05:31:59;;;;;;;49.25;11.93;;;-2.00;99.90;;;;;;4851090;28;20099;-92
2021/01/27 05:34:28;;;;;;;52.15;10.52;;;-2.00;99.90;;;;;;4855914;28;20485;-93
2021/01/27 05:36:51;;;;;;;20.08;6.25;;;-2.00;99.90;;;;;;4852687;28;20107;-93
2021/01/27 05:39:17;;;;;;;15.18;5.72;;;-2.00;99.90;;;;;;4868288;28;20151;-91
2021/01/27 05:41:48;;;;;;;24.25;6.78;;;-2.00;99.90;;;;;;4873909;28;20099;-93
2021/01/27 05:44:15;;;;;;;18.50;5.68;;;-2.00;99.90;;;;;;4872704;28;20098;-93
2021/01/27 05:46:40;;;;;;;11.95;4.93;;;-2.00;99.90;;;;;;4856765;28;20112;-95
2021/01/27 05:49:04;;;;;;;15.30;5.45;;;;;;;;;;4856066;28;20186;-93
2021/01/27 05:51:30;;;;;;;13.10;4.93;;;-2.00;99.90;;;;;;4855065;28;20149;-92
2021/01/27 05:53:53;;;;;;;19.70;6.95;;;-2.00;99.90;;;;;;4870947;28;20193;-92
2021/01/27 05:56:20;;;;;;;17.17;6.20;;;-2.10;99.90;;;;;;4873121;28;20535;-91
2021/01/27 05:58:56;;;;;;;18.52;4.93;;;-2.00;99.90;;;;;;4857570;28;20097;-93
2021/01/27 06:01:42;;;;;;;12.48;4.55;;;-1.90;99.90;;;;;;4863851;28;20204;-94
2021/01/27 06:04:19;;;;;;;11.30;3.50;;;-1.80;99.90;;;;;;4857276;28;20478;-94
2021/01/27 06:07:01;;;;;;;12.32;2.78;;;-1.80;99.90;;;;;;4875127;28;20185;-93
2021/01/27 06:09:33;;;;;;;9.73;3.90;;;-1.80;99.90;;;;;;4873954;28;20581;-93
2021/01/27 06:12:14;;;;;;;10.02;4.20;;;-1.70;99.90;;;;;;4867814;28;21260;-87
2021/01/27 06:15:08;;;;;;;13.10;3.80;;;-1.70;99.90;;;;;;4867187;28;20145;-93
2021/01/27 06:17:41;;;;;;;11.73;3.45;;;-1.60;99.90;;;;;;4872536;28;20100;-93
2021/01/27 06:20:22;;;;;;;13.15;3.55;;;-1.60;99.90;;;;;;4873959;28;20104;-93
2021/01/27 06:23:28;;;;;;;11.60;4.38;;;-1.50;99.90;;;;;;4855899;28;20095;-94
2021/01/27 06:26:14;;;;;;;13.02;3.65;;;-1.40;99.90;;;;;;4865625;28;20135;-93
2021/01/27 06:28:59;;;;;;;8.97;3.17;;;-1.30;99.90;;;;;;4872623;28;20103;-92
2021/01/27 06:31:34;;;;;;;11.00;3.90;;;-1.20;99.90;;;;;;4874732;28;20101;-92
2021/01/27 06:34:43;;;;;;;10.82;3.13;;;-1.20;99.90;;;;;;4835756;28;20097;-92
2021/01/27 06:37:24;;;;;;;8.48;3.78;;;-1.10;99.90;;;;;;4866300;28;20114;-94
2021/01/27 06:40:27;;;;;;;17.85;3.80;;;-1.10;99.90;;;;;;4868400;28;20105;-91
2021/01/27 06:43:20;;;;;;;14.75;3.90;;;-1.10;99.90;;;;;;4827005;28;20102;-92
2021/01/27 06:45:53;;;;;;;9.30;3.88;;;-1.00;99.90;;;;;;4873857;28;20099;-92
2021/01/27 06:48:43;;;;;;;16.45;3.95;;;-1.00;99.90;;;;;;4877220;28;20097;-93
2021/01/27 06:51:26;;;;;;;8.48;3.70;;;-1.00;99.90;;;;;;4876455;28;20089;-93
2021/01/27 06:54:24;;;;;;;7.68;3.53;;;-1.10;99.90;;;;;;4859159;28;20099;-90
2021/01/27 06:57:14;;;;;;;9.05;4.10;;;-1.00;99.90;;;;;;4854506;28;20092;-92
2021/01/27 07:00:02;;;;;;;17.15;4.22;;;-1.00;99.90;;;;;;4854128;28;20818;-91
2021/01/27 07:03:15;;;;;;;9.30;3.67;;;-1.00;99.90;;;;;;4862705;28;20093;-92
2021/01/27 07:06:20;;;;;;;17.52;4.10;;;-0.90;99.90;;;;;;4870640;28;20450;-93
2021/01/27 07:09:20;;;;;;;11.48;5.35;;;-0.80;99.90;;;;;;4819413;28;20100;-85
2021/01/27 07:12:08;;;;;;;10.85;4.78;;;-0.80;99.90;;;;;;4855998;28;20102;-91
2021/01/27 07:15:02;;;;;;;14.70;4.63;;;-0.70;99.90;;;;;;4868387;28;20095;-90
2021/01/27 07:18:06;;;;;;;12.75;5.40;;;-0.60;99.90;;;;;;4865402;28;20104;-92
2021/01/27 07:20:33;;;;;;;15.63;5.13;;;-0.60;99.90;;;;;;4868485;28;20104;-92
2021/01/27 07:23:03;;;;;;;17.13;6.07;;;-0.50;99.90;;;;;;4859753;28;20096;-92
2021/01/27 07:25:45;;;;;;;15.65;6.30;;;-0.50;99.90;;;;;;4861285;28;20454;-92
2021/01/27 07:28:20;;;;;;;17.98;6.35;;;-0.40;99.90;;;;;;4854171;28;20089;-88
2021/01/27 07:30:53;;;;;;;19.38;6.93;;;-0.40;99.90;;;;;;4856979;28;20103;-92
2021/01/27 07:33:21;;;;;;;18.85;5.95;;;-0.30;99.90;;;;;;4869113;28;20101;-90
2021/01/27 07:35:58;;;;;;;19.70;6.90;;;-0.30;99.90;;;;;;4867179;28;20533;-91
2021/01/27 07:38:28;;;;;;;21.13;8.35;;;-0.30;99.90;;;;;;4869361;28;20167;-90
2021/01/27 07:40:56;;;;;;;23.35;7.25;;;-0.20;99.90;;;;;;4863366;28;20103;-90
2021/01/27 07:43:25;;;;;;;26.80;9.00;;;-0.10;99.90;;;;;;4868399;28;20107;-89
2021/01/27 07:45:50;;;;;;;23.65;8.30;;;-0.10;99.90;;;;;;4860794;28;20097;-89
2021/01/27 07:48:20;;;;;;;28.40;8.20;;;-0.10;99.90;;;;;;4855852;28;20096;-89
2021/01/27 07:50:50;;;;;;;20.13;8.63;;;-0.10;99.90;;;;;;4859617;28;20428;-89
2021/01/27 07:53:20;;;;;;;24.48;8.63;;;0.00;99.90;;;;;;4860660;28;20090;-90
2021/01/27 07:55:54;;;;;;;22.65;7.80;;;-0.10;99.90;;;;;;4860065;28;20505;-87
2021/01/27 07:58:24;;;;;;;25.25;7.88;;;-0.10;99.90;;;;;;4869578;28;20558;-90
2021/01/27 08:00:55;;;;;;;20.63;7.93;;;-0.20;99.90;;;;;;4857119;28;20094;-91
2021/01/27 08:03:33;;;;;;;26.23;7.25;;;-0.30;99.90;;;;;;4866620;28;20096;-90
2021/01/27 08:06:05;;;;;;;26.63;7.88;;;-0.30;99.90;;;;;;4872590;28;20139;-91
2021/01/27 08:08:31;;;;;;;31.45;9.20;;;-0.30;99.90;;;;;;4857035;28;20173;-90
2021/01/27 08:10:55;;;;;;;26.70;8.85;;;;;;;;;;4877445;28;20091;-90
2021/01/27 08:13:35;;;;;;;26.88;9.02;;;-0.30;99.90;;;;;;4859071;28;20098;-90
2021/01/27 08:16:24;;;;;;;24.67;9.02;;;-0.30;99.90;;;;;;4876410;28;20101;-91
2021/01/27 08:19:23;;;;;;;34.65;10.48;;;-0.30;99.90;;;;;;4872544;28;20107;-91
2021/01/27 08:21:51;;;;;;;36.17;11.43;;;-0.10;99.90;;;;;;4868846;28;20097;-90
2021/01/27 08:24:49;;;;;;;38.00;13.15;;;-0.10;99.90;;;;;;4860020;28;20090;-90
2021/01/27 08:27:33;;;;;;;51.58;14.43;;;0.30;99.90;;;;;;4865275;28;20097;-90
2021/01/27 08:30:25;;;;;;;41.17;13.75;;;0.10;99.90;;;;;;4856077;28;20099;-89
2021/01/27 08:33:26;;;;;;;52.50;14.90;;;0.20;99.90;;;;;;4856085;28;20107;-89
2021/01/27 08:36:04;;;;;;;37.05;12.60;;;0.20;99.90;;;;;;4854607;28;20099;-90
2021/01/27 08:38:38;;;;;;;39.65;12.77;;;0.30;99.90;;;;;;4853958;28;20099;-88
2021/01/27 08:41:02;;;;;;;54.15;13.93;;;0.30;99.90;;;;;;4852410;28;20503;-89
2021/01/27 08:43:36;;;;;;;44.08;12.98;;;0.30;99.90;;;;;;4857132;28;20129;-88
2021/01/27 08:46:19;;;;;;;49.72;14.80;;;0.30;99.90;;;;;;4856805;28;20446;-88
2021/01/27 08:48:50;;;;;;;47.45;12.40;;;0.30;99.90;;;;;;4859436;28;20093;-88
2021/01/27 08:51:55;;;;;;;43.05;13.43;;;0.40;99.90;;;;;;4855787;28;20103;-88
2021/01/27 08:54:29;;;;;;;51.47;13.43;;;0.40;99.90;;;;;;4852037;28;20088;-87
2021/01/27 08:57:21;;;;;;;51.83;13.15;;;0.40;99.90;;;;;;4853401;28;20096;-88
2021/01/27 09:00:00;;;;;;;59.33;13.27;;;0.40;99.90;;;;;;4865830;28;20121;-86
2021/01/27 09:03:02;;;;;;;59.03;13.82;;;0.50;99.90;;;;;;4818144;28;20592;-86
2021/01/27 09:06:02;;;;;;;50.63;12.90;;;0.50;99.90;;;;;;4811743;28;20109;-87
2021/01/27 09:09:02;;;;;;;54.92;13.77;;;0.50;99.90;;;;;;4799871;28;20089;-86
2021/01/27 09:11:47;;;;;;;66.15;15.00;;;0.50;99.90;;;;;;4807504;28;20178;-87
2021/01/27 09:14:43;;;;;;;53.90;12.95;;;0.50;99.90;;;;;;4816704;28;20144;-85
2021/01/27 09:17:56;;;;;;;52.60;13.53;;;0.60;99.90;;;;;;4803065;28;20146;-86
2021/01/27 09:20:57;;;;;;;41.40;11.98;;;0.60;99.90;;;;;;4817450;28;20091;-84
2021/01/27 09:23:43;;;;;;;54.75;13.15;;;0.60;99.90;;;;;;4801841;28;20090;-85
2021/01/27 09:26:37;;;;;;;;;;;0.60;99.90;;;;;;4814748;28;20519;-84
2021/01/27 09:29:08;;;;;;;54.47;12.43;;;0.60;99.90;;;;;;4844712;28;20487;-85
2021/01/27 09:32:09;;;;;;;48.22;12.57;;;0.70;99.90;;;;;;4840953;28;20093;-86
2021/01/27 09:35:31;;;;;;;54.33;12.75;;;0.70;99.90;;;;;;4796198;28;20857;-86
2021/01/27 09:38:43;;;;;;;50.90;12.25;;;0.80;99.90;;;;;;4797964;28;20247;-85
2021/01/27 10:46:43;;;;;;;59.90;14.23;;;1.20;99.90;;;;;;4840121;27;20098;-82
2021/01/27 10:49:40;;;;;;;54.30;14.50;;;1.30;99.90;;;;;;4833705;28;20582;-84
2021/01/27 10:52:07;;;;;;;55.53;15.15;;;1.30;99.90;;;;;;4840616;27;20145;-84
2021/01/27 10:54:31;;;;;;;66.13;15.73;;;1.40;99.90;;;;;;4880565;27;20514;-86
2021/01/27 10:56:57;;;;;;;61.63;15.60;;;;;;;;;;4878209;27;20189;-85
2021/01/27 10:59:22;;;;;;;;;;;1.40;99.90;;;;;;4867906;28;20437;-84
2021/01/27 11:01:51;;;;;;;72.18;16.65;;;1.40;99.90;;;;;;4873061;27;20025;-85
2021/01/27 11:04:14;;;;;;;56.88;15.82;;;1.50;99.90;;;;;;4881384;28;20089;-84
2021/01/27 11:06:44;;;;;;;55.30;15.65;;;1.50;99.90;;;;;;4866895;28;20102;-83
2021/01/27 11:09:14;;;;;;;65.05;18.70;;;1.70;99.90;;;;;;4870679;28;20095;-85
2021/01/27 11:11:38;;;;;;;68.03;17.02;;;1.80;99.90;;;;;;4866848;28;20096;-84
2021/01/27 11:14:02;;;;;;;57.75;16.00;;;2.00;99.90;;;;;;4882852;27;20093;-83
2021/01/27 11:16:25;;;;;;;58.83;17.13;;;2.00;99.90;;;;;;4882000;27;20088;-84
2021/01/27 11:18:47;;;;;;;66.43;15.45;;;2.10;99.90;;;;;;4869169;27;21218;-83
2021/01/27 11:21:11;;;;;;;61.70;16.20;;;2.20;99.90;;;;;;4876184;27;20094;-84
2021/01/27 11:23:35;;;;;;;65.78;15.85;;;2.30;99.90;;;;;;4879679;27;20086;-82
2021/01/27 11:26:00;;;;;;;60.28;15.73;;;;;;;;;;4860983;27;20475;-85
2021/01/27 11:28:26;;;;;;;64.70;15.93;;;2.20;99.90;;;;;;4874857;27;20093;-83
2021/01/27 11:30:50;;;;;;;63.40;16.52;;;2.20;99.90;;;;;;4867274;28;20096;-83
2021/01/27 11:33:25;;;;;;;57.72;15.95;;;2.30;99.90;;;;;;4863554;28;20097;-84
2021/01/27 11:35:48;;;;;;;59.88;15.50;;;2.20;99.90;;;;;;4872080;28;20105;-82
2021/01/27 11:38:13;;;;;;;58.35;16.13;;;2.30;99.90;;;;;;4867219;28;20101;-84
2021/01/27 11:40:35;;;;;;;57.13;15.18;;;2.20;99.90;;;;;;4880922;28;20093;-85
2021/01/27 11:43:05;;;;;;;60.50;17.15;;;2.10;99.90;;;;;;4869151;27;20153;-82
2021/01/27 11:45:28;;;;;;;75.30;17.85;;;2.10;99.90;;;;;;4853768;27;20092;-81
2021/01/27 11:47:59;;;;;;;71.07;18.17;;;;;;;;;;4877389;27;20090;-83
2021/01/27 11:50:27;;;;;;;66.82;18.65;;;2.10;99.90;;;;;;4867383;27;20095;-82
2021/01/27 11:52:58;;;;;;;65.20;18.35;;;2.00;99.90;;;;;;4865160;28;20089;-82
2021/01/27 11:55:23;;;;;;;64.00;17.77;;;2.00;99.90;;;;;;4867577;27;20093;-82
2021/01/27 11:57:56;;;;;;;68.65;18.33;;;1.90;99.90;;;;;;4856741;28;20102;-86
2021/01/27 12:00:21;;;;;;;66.95;20.23;;;1.90;99.90;;;;;;4864818;28;20095;-84
2021/01/27 12:02:44;;;;;;;62.65;18.45;;;1.90;99.90;;;;;;4854728;28;20093;-82
2021/01/27 12:05:10;;;;;;;57.40;16.30;;;2.00;99.90;;;;;;4855323;27;20096;-85
2021/01/27 12:07:33;;;;;;;51.60;16.98;;;;;;;;;;4859659;28;20117;-84
2021/01/27 12:09:56;;;;;;;58.85;16.90;;;1.90;99.90;;;;;;4858271;28;20145;-86
2021/01/27 12:12:20;;;;;;;59.67;17.77;;;1.90;99.90;;;;;;4853700;28;20568;-85
2021/01/27 12:14:43;;;;;;;57.58;17.00;;;1.90;99.90;;;;;;4858891;28;20426;-83
2021/01/27 12:17:15;;;;;;;53.17;17.17;;;1.80;99.90;;;;;;4857419;28;20186;-83
2021/01/27 12:19:40;;;;;;;60.20;17.55;;;1.80;99.90;;;;;;4861254;27;20095;-86
2021/01/27 12:22:05;;;;;;;56.20;16.43;;;1.80;99.90;;;;;;4852924;27;20091;-81
2021/01/27 12:24:29;;;;;;;55.05;16.10;;;1.80;99.90;;;;;;4856228;27;20130;-85
2021/01/27 12:26:58;;;;;;;56.97;16.25;;;1.80;99.90;;;;;;4856108;28;20445;-85
2021/01/27 12:29:28;;;;;;;58.35;17.00;;;1.90;99.90;;;;;;4855389;28;20449;-85
2021/01/27 12:31:53;;;;;;;60.22;16.48;;;1.90;99.90;;;;;;4868844;27;20478;-85
2021/01/27 12:34:16;;;;;;;53.95;17.00;;;1.80;99.90;;;;;;4858319;28;20446;-84
2021/01/27 12:36:48;;;;;;;56.90;16.67;;;1.90;99.90;;;;;;4854577;28;20098;-85
2021/01/27 12:39:12;;;;;;;55.55;16.60;;;;;;;;;;4854625;28;20084;-84
2021/01/27 12:41:41;;;;;;;56.38;16.35;;;1.90;99.90;;;;;;4853525;28;20543;-82
2021/01/27 12:44:07;;;;;;;58.22;15.95;;;2.00;99.90;;;;;;4861520;27;20097;-85
2021/01/27 12:46:37;;;;;;;51.60;16.50;;;2.00;99.90;;;;;;4853227;28;20095;-84
2021/01/27 12:49:00;;;;;;;52.50;15.43;;;2.10;99.90;;;;;;4870624;28;21658;-84
2021/01/27 12:51:30;;;;;;;48.03;15.90;;;2.10;99.90;;;;;;4851570;28;20092;-84
2021/01/27 12:53:54;;;;;;;53.38;16.98;;;2.00;99.90;;;;;;4867054;27;20855;-84
2021/01/27 12:56:18;;;;;;;45.65;15.60;;;2.00;99.90;;;;;;4891070;27;20091;-81
2021/01/27 12:58:42;;;;;;;50.90;16.17;;;1.90;99.90;;;;;;4873950;27;22056;-84
2021/01/27 13:01:06;;;;;;;47.78;15.77;;;1.90;99.90;;;;;;4872389;27;20507;-85
2021/01/27 13:03:28;;;;;;;51.35;17.20;;;1.90;99.90;;;;;;4872957;27;20097;-84
2021/01/27 13:05:51;;;;;;;52.25;16.67;;;1.90;99.90;;;;;;4857914;27;20091;-84
2021/01/27 13:08:14;;;;;;;46.88;16.05;;;1.90;99.90;;;;;;4853373;28;20155;-85
2021/01/27 13:10:44;;;;;;;56.80;17.45;;;1.90;99.90;;;;;;4861205;27;20095;-84
2021/01/27 13:13:10;;;;;;;57.30;17.73;;;2.00;99.90;;;;;;4875712;27;20574;-85
2021/01/27 13:15:33;;;;;;;54.30;18.27;;;2.00;99.90;;;;;;4859448;27;20095;-84
2021/01/27 13:17:57;;;;;;;51.78;17.00;;;2.10;99.90;;;;;;4873831;28;20088;-84
2021/01/27 13:20:22;;;;;;;54.22;17.95;;;2.10;99.90;;;;;;4868836;27;20087;-85
2021/01/27 13:22:45;;;;;;;56.05;17.42;;;2.00;99.90;;;;;;4869730;28;20091;-82
2021/01/27 13:25:12;;;;;;;60.25;17.90;;;2.00;99.90;;;;;;4857248;28;20168;-84
2021/01/27 13:27:36;;;;;;;57.55;18.40;;;2.00;99.90;;;;;;4852715;27;20091;-84
2021/01/27 13:30:10;;;;;;;61.42;20.02;;;2.00;99.90;;;;;;4864834;27;20552;-83
2021/01/27 13:32:32;;;;;;;59.92;19.75;;;2.00;99.90;;;;;;4863722;27;20093;-84
2021/01/27 13:34:55;;;;;;;68.20;21.17;;;2.00;99.90;;;;;;4856855;28;20101;-84
2021/01/27 13:37:18;;;;;;;61.55;20.90;;;2.00;99.90;;;;;;4848847;28;20073;-83
2021/01/27 13:39:40;;;;;;;55.80;20.55;;;2.00;99.90;;;;;;4868687;27;20093;-85
2021/01/27 13:42:03;;;;;;;66.82;21.95;;;2.00;99.90;;;;;;4867825;27;20560;-85
2021/01/27 13:44:26;;;;;;;78.32;24.83;;;2.00;99.90;;;;;;4860645;28;20380;-84
2021/01/27 13:46:50;;;;;;;72.82;23.20;;;2.00;99.90;;;;;;4868536;28;20159;-83
2021/01/27 13:49:13;;;;;;;73.45;22.70;;;2.00;99.90;;;;;;4867656;28;20086;-85
2021/01/27 13:51:36;;;;;;;75.35;22.25;;;2.10;99.90;;;;;;4854826;27;20100;-84
2021/01/27 13:53:59;;;;;;;61.33;21.95;;;2.10;99.90;;;;;;4857263;27;20085;-84
2021/01/27 13:56:22;;;;;;;74.22;21.90;;;;;;;;;;4867398;28;20105;-82
2021/01/27 13:58:45;;;;;;;71.82;23.58;;;2.10;99.90;;;;;;4867583;28;20089;-84
2021/01/27 14:01:08;;;;;;;65.65;22.33;;;2.10;99.90;;;;;;4866463;28;20129;-84
2021/01/27 14:03:32;;;;;;;76.78;24.83;;;2.10;99.90;;;;;;4849942;27;20563;-84
2021/01/27 14:05:55;;;;;;;79.82;25.10;;;2.10;99.90;;;;;;4863914;28;20119;-83
2021/01/27 14:08:17;;;;;;;71.53;23.27;;;2.10;99.90;;;;;;4853485;27;20143;-83
2021/01/27 14:10:40;;;;;;;81.60;25.15;;;2.10;99.90;;;;;;4865007;27;20085;-82
2021/01/27 14:13:03;;;;;;;76.13;23.67;;;2.10;99.90;;;;;;4862726;27;20218;-84
2021/01/27 14:15:27;;;;;;;83.93;25.63;;;2.10;99.90;;;;;;4854551;27;20095;-85